Time;durP1;ratioP1;P1;durP2;ratioP2;P2;SDS_P1;SDS_P2;PMS_P1;PMS_P2;Temp;Humidity;BMP_temperature;BMP_pressure;BME280_temperature;BME280_humidity;BME280_pressure;Samples;Min_cycle;Max_cycle;Signal;HPM_P1;HPM_P2
2022/06/22 00:00:18;;;;;;;;;16.00;10.33;;;;;23.34;59.21;100763.84;5077688;28;45597;-72
2022/06/22 00:02:46;;;;;;;;;9.33;9.33;;;;;23.30;59.49;100758.66;5077768;28;47295;-72
2022/06/22 00:05:18;;;;;;;;;13.00;11.00;;;;;23.26;60.51;100749.81;5058996;28;45566;-72
2022/06/22 00:07:49;;;;;;;;;11.33;11.33;;;;;23.20;59.77;100753.66;5077202;28;45390;-72
2022/06/22 00:10:28;;;;;;;;;12.33;10.33;;;;;23.16;60.08;100770.00;5077786;28;45525;-72
2022/06/22 00:12:56;;;;;;;;;11.00;10.33;;;;;23.11;60.73;100780.97;5077739;27;47525;-72
2022/06/22 00:15:33;;;;;;;;;13.33;13.33;;;;;23.09;61.27;100779.28;5077427;28;45686;-72
2022/06/22 00:18:01;;;;;;;;;11.33;10.33;;;;;23.04;61.00;100771.41;5077978;28;45291;-72
2022/06/22 00:20:31;;;;;;;;;11.00;11.00;;;;;23.01;61.50;100755.38;5077470;27;45605;-72
2022/06/22 00:23:00;;;;;;;;;14.00;11.33;;;;;22.97;61.65;100753.75;5077134;28;46466;-72
2022/06/22 00:25:31;;;;;;;;;10.00;10.00;;;;;22.94;61.39;100762.81;5059205;28;45403;-72
2022/06/22 00:28:31;;;;;;;;;10.00;8.33;;;;;22.90;62.06;100755.81;5077821;27;45585;-72
2022/06/22 00:31:12;;;;;;;;;11.00;10.33;;;;;22.80;62.58;100757.13;5077596;27;45284;-72
2022/06/22 00:33:38;;;;;;;;;11.00;9.33;;;;;22.80;62.54;100758.91;5076801;28;46618;-72
2022/06/22 00:36:15;;;;;;;;;11.33;10.00;;;;;22.76;64.16;100763.56;5058718;28;45455;-72
2022/06/22 00:38:40;;;;;;;;;12.00;9.33;;;;;22.74;63.38;100754.66;5077580;28;45282;-72
2022/06/22 00:41:21;;;;;;;;;9.67;9.67;;;;;22.72;63.60;100752.03;5076328;28;45653;-72
2022/06/22 00:43:47;;;;;;;;;10.33;8.33;;;;;22.71;63.82;100746.72;5076482;27;47309;-72
2022/06/22 00:46:18;;;;;;;;;11.33;9.00;;;;;22.70;63.96;100747.66;5058870;28;45568;-72
2022/06/22 00:48:47;;;;;;;;;9.00;9.00;;;;;22.65;64.37;100739.75;5058687;28;45432;-72
2022/06/22 00:51:16;;;;;;;;;11.00;8.00;;;;;22.63;64.17;100736.22;5059231;28;45380;-72
2022/06/22 00:54:03;;;;;;;;;9.33;8.00;;;;;22.62;64.15;100739.88;5058761;28;46512;-72
2022/06/22 00:56:46;;;;;;;;;9.67;9.67;;;;;22.60;64.39;100746.28;5076883;28;45375;-72
2022/06/22 00:59:30;;;;;;;;;14.33;9.33;;;;;22.56;65.02;100750.88;5058679;28;45356;-71
2022/06/22 01:01:58;;;;;;;;;11.33;9.33;;;;;22.55;65.09;100756.34;5073831;28;45418;-72
2022/06/22 01:04:44;;;;;;;;;11.00;11.00;;;;;22.52;65.26;100759.13;5076134;28;46755;-72
2022/06/22 01:07:18;;;;;;;;;11.00;10.00;;;;;22.48;65.60;100751.22;5058377;28;45277;-72
2022/06/22 01:10:00;;;;;;;;;11.67;8.00;;;;;22.46;65.63;100750.38;5076834;28;45462;-72
2022/06/22 01:12:29;;;;;;;;;10.00;10.00;;;;;22.42;65.63;100740.66;5077350;28;45438;-72
2022/06/22 01:15:06;;;;;;;;;13.00;10.33;;;;;22.41;66.12;100740.72;5075806;27;47062;-73
2022/06/22 01:17:35;;;;;;;;;13.00;10.00;;;;;22.36;65.93;100738.22;5076439;28;45489;-72
2022/06/22 01:20:10;;;;;;;;;12.00;10.00;;;;;22.32;66.02;100736.59;5076149;28;45359;-72
2022/06/22 01:22:47;;;;;;;;;14.67;9.33;;;;;22.31;66.46;100740.22;5076621;28;45571;-72
2022/06/22 01:25:24;;;;;;;;;12.67;9.67;;;;;22.28;66.38;100740.34;5076233;28;46177;-72
2022/06/22 01:27:50;;;;;;;;;11.00;9.33;;;;;22.25;66.42;100739.56;5076414;28;45408;-72
2022/06/22 01:30:16;;;;;;;;;11.00;9.00;;;;;22.24;66.69;100744.09;5076199;27;45380;-72
2022/06/22 01:32:42;;;;;;;;;12.00;11.00;;;;;22.20;67.22;100743.31;5076298;27;46711;-72
2022/06/22 01:35:17;;;;;;;;;12.00;11.00;;;;;22.18;66.84;100737.13;5075990;28;47633;-71
2022/06/22 01:37:45;;;;;;;;;11.00;10.00;;;;;22.13;67.08;100731.03;5076307;28;45572;-72
2022/06/22 01:40:23;;;;;;;;;13.33;10.00;;;;;22.10;67.14;100735.63;5076633;28;45268;-72
2022/06/22 01:43:04;;;;;;;;;10.33;10.33;;;;;22.07;67.45;100736.63;5070132;27;46294;-72
2022/06/22 01:45:39;;;;;;;;;11.00;11.00;;;;;22.05;67.53;100734.91;5073314;28;47453;-72
2022/06/22 01:48:08;;;;;;;;;8.00;8.00;;;;;22.03;68.14;100734.13;5077810;28;45535;-73
2022/06/22 01:50:47;;;;;;;;;14.33;10.33;;;;;21.98;67.69;100735.16;5076053;28;45546;-72
2022/06/22 01:53:17;;;;;;;;;15.67;11.00;;;;;21.95;68.36;100735.28;5076539;28;45389;-71
2022/06/22 01:55:53;;;;;;;;;10.67;10.67;;;;;21.92;68.30;100742.59;5075613;28;46727;-72
2022/06/22 01:58:19;;;;;;;;;11.67;10.00;;;;;21.90;68.17;100745.34;5075969;27;45393;-72
2022/06/22 02:00:48;;;;;;;;;11.00;11.00;;;;;21.89;68.48;100740.00;5082828;27;45779;-72
2022/06/22 02:03:20;;;;;;;;;10.00;10.00;;;;;21.90;68.55;100745.34;5056411;28;45540;-72
2022/06/22 02:05:56;;;;;;;;;12.33;12.33;;;;;21.92;68.69;100748.84;5073384;28;46860;-72
2022/06/22 02:08:30;;;;;;;;;12.00;11.00;;;;;21.97;69.41;100746.84;5050973;28;45602;-71
2022/06/22 02:11:06;;;;;;;;;12.00;10.67;;;;;22.00;69.13;100758.41;5074505;28;45347;-72
2022/06/22 02:13:43;;;;;;;;;14.33;10.00;;;;;22.01;69.43;100765.56;5075062;28;45577;-72
2022/06/22 02:16:29;;;;;;;;;14.33;11.00;;;;;22.03;68.79;100774.44;5060352;28;46319;-72
2022/06/22 02:18:57;;;;;;;;;12.33;12.00;;;;;22.04;69.35;100769.00;5055936;28;45538;-71
2022/06/22 02:21:57;;;;;;;;;13.67;10.33;;;;;22.05;68.78;100767.19;5056591;28;45320;-72
2022/06/22 02:24:26;;;;;;;;;13.67;11.67;;;;;22.01;69.27;100758.38;5031533;28;45617;-72
2022/06/22 02:26:54;;;;;;;;;10.33;10.33;;;;;21.99;68.99;100757.53;5056981;28;47441;-72
2022/06/22 02:29:23;;;;;;;;;10.67;9.00;;;;;21.95;69.68;100747.84;5074337;28;45514;-71
2022/06/22 02:31:51;;;;;;;;;13.33;12.00;;;;;21.92;69.75;100743.47;5053356;28;45555;-72
2022/06/22 02:34:20;;;;;;;;;13.67;11.00;;;;;21.87;69.72;100733.81;5057789;28;45664;-72
2022/06/22 02:36:49;;;;;;;;;11.33;10.33;;;;;21.83;70.45;100734.84;5065069;28;46567;-72
2022/06/22 02:39:16;;;;;;;;;9.33;9.33;;;;;21.77;70.36;100724.34;5061750;28;45518;-72
2022/06/22 02:44:31;;;;;;;;;10.67;10.67;;;;;21.67;70.70;100731.84;5055791;28;45401;-72
2022/06/22 02:47:13;;;;;;;;;10.33;10.33;;;;;21.64;70.97;100721.22;5046490;28;46256;-72
2022/06/22 02:49:42;;;;;;;;;14.00;11.00;;;;;21.59;70.57;100724.09;5065906;28;45415;-72
2022/06/22 02:52:10;;;;;;;;;11.33;9.67;;;;;21.55;71.16;100725.13;5065678;28;45515;-72
2022/06/22 02:54:42;;;;;;;;;13.33;13.33;;;;;21.53;71.49;100728.81;5051883;28;45640;-72
2022/06/22 02:57:28;;;;;;;;;12.67;12.67;;;;;21.51;71.32;100736.03;5062611;28;46344;-72
2022/06/22 02:59:53;;;;;;;;;12.67;10.33;;;;;21.48;71.61;100736.16;5075030;28;45575;-72
2022/06/22 03:02:22;;;;;;;;;13.67;12.33;;;;;21.43;71.60;100737.19;5065364;28;60958;-72
2022/06/22 03:04:48;;;;;;;;;11.67;11.67;;;;;21.41;72.07;100739.06;5058871;28;45339;-72
2022/06/22 03:07:14;;;;;;;;;13.00;9.67;;;;;21.39;72.70;100729.28;5058303;28;46711;-72
2022/06/22 03:09:40;;;;;;;;;13.00;10.00;;;;;21.35;72.81;100728.50;5058451;28;45568;-72
2022/06/22 03:12:11;;;;;;;;;14.67;12.33;;;;;21.35;72.96;100724.94;5040623;28;45526;-72
2022/06/22 03:14:44;;;;;;;;;15.33;11.33;;;;;21.31;73.61;100709.91;5060518;28;45557;-72
2022/06/22 03:17:15;;;;;;;;;12.67;11.00;;;;;21.29;72.97;100704.53;5056413;28;45797;-72
2022/06/22 03:19:45;;;;;;;;;15.67;12.67;;;;;21.28;73.90;100700.09;5057616;28;45259;-73
2022/06/22 03:22:16;;;;;;;;;13.67;11.33;;;;;21.26;74.23;100703.78;5057692;28;45555;-72
2022/06/22 03:24:57;;;;;;;;;18.67;14.00;;;;;21.23;74.36;100703.88;5058357;28;45466;-72
2022/06/22 03:27:25;;;;;;;;;11.33;11.33;;;;;21.20;74.34;100694.13;5057160;28;47496;-72
2022/06/22 03:30:02;;;;;;;;;10.33;7.33;;;;;21.19;74.23;100700.41;5053136;28;45470;-72
2022/06/22 03:32:32;;;;;;;;;15.67;14.00;;;;;21.15;74.70;100682.66;5057729;28;45433;-72
2022/06/22 03:35:06;;;;;;;;;15.00;14.00;;;;;21.12;74.31;100678.25;5057758;28;45538;-72
2022/06/22 03:37:40;;;;;;;;;12.00;12.00;;;;;21.10;74.63;100671.22;5057808;28;47628;-73
2022/06/22 03:40:22;;;;;;;;;15.00;13.33;;;;;21.06;75.17;100673.09;5058021;28;45536;-71
2022/06/22 03:42:51;;;;;;;;;13.00;13.00;;;;;21.03;75.05;100685.75;5040039;28;45478;-71
2022/06/22 03:45:27;;;;;;;;;13.00;13.00;;;;;21.01;75.26;100680.44;5039491;28;45641;-71
2022/06/22 03:48:04;;;;;;;;;15.33;13.67;;;;;21.00;75.12;100678.69;5039470;28;47720;-72
2022/06/22 03:50:38;;;;;;;;;15.67;14.33;;;;;20.97;75.71;100668.06;5057616;28;45396;-72
2022/06/22 03:53:11;;;;;;;;;13.33;12.67;;;;;20.98;75.85;100669.81;5058241;28;45564;-72
2022/06/22 03:55:40;;;;;;;;;12.00;10.67;;;;;20.95;76.00;100664.56;5057816;28;45364;-72
2022/06/22 03:58:08;;;;;;;;;12.33;12.33;;;;;20.97;76.19;100667.19;5039854;28;47573;-72
2022/06/22 04:00:34;;;;;;;;;15.67;12.00;;;;;20.96;75.81;100663.63;5057468;28;45218;-72
2022/06/22 04:03:01;;;;;;;;;11.00;11.00;;;;;20.96;75.80;100662.75;5058203;28;47823;-73
2022/06/22 04:05:45;;;;;;;;;13.00;11.67;;;;;20.97;76.19;100664.50;5059930;28;45300;-72
2022/06/22 04:08:35;;;;;;;;;15.33;12.33;;;;;20.96;76.66;100677.03;5069726;28;47613;-72
2022/06/22 04:11:09;;;;;;;;;16.67;13.33;;;;;20.96;76.40;100684.22;5058695;28;45421;-72
2022/06/22 04:13:40;;;;;;;;;14.33;14.33;;;;;20.95;76.63;100682.47;5077492;28;45774;-72
2022/06/22 04:16:13;;;;;;;;;19.33;17.00;;;;;20.95;76.64;100687.84;5076630;28;45901;-72
2022/06/22 04:18:49;;;;;;;;;11.67;10.33;;;;;20.95;77.24;100695.88;5059409;28;46571;-72
2022/06/22 04:21:20;;;;;;;;;14.67;14.67;;;;;20.93;76.73;100693.25;5076601;28;45536;-72
2022/06/22 04:23:54;;;;;;;;;19.00;15.00;;;;;20.96;77.33;100689.59;5059012;28;45434;-71
2022/06/22 04:27:03;;;;;;;;;18.00;13.67;;;;;20.96;77.37;100700.31;5075998;28;45271;-72
2022/06/22 04:29:59;;;;;;;;;17.67;14.67;;;;;20.96;77.37;100697.63;5070052;28;46479;-72
2022/06/22 04:32:29;;;;;;;;;15.33;15.33;;;;;20.95;76.91;100688.72;5058478;28;45550;-72
2022/06/22 04:35:22;;;;;;;;;15.00;14.33;;;;;20.97;77.32;100685.97;5077081;28;45308;-72
2022/06/22 04:37:52;;;;;;;;;16.00;13.00;;;;;20.97;77.14;100678.78;5072256;28;45390;-72
2022/06/22 04:40:25;;;;;;;;;17.33;15.33;;;;;20.97;78.05;100683.28;5058113;28;46487;-71
2022/06/22 04:42:55;;;;;;;;;14.00;11.33;;;;;20.97;77.57;100692.22;5059002;28;45781;-72
2022/06/22 04:45:25;;;;;;;;;17.00;13.00;;;;;20.99;78.03;100710.97;5059244;28;45374;-72
2022/06/22 04:47:51;;;;;;;;;12.33;11.67;;;;;20.99;77.95;100695.75;5077273;28;45306;-71
2022/06/22 04:50:16;;;;;;;;;15.00;15.00;;;;;21.03;78.38;100685.75;5076194;28;65143;-72
2022/06/22 04:52:48;;;;;;;;;13.00;12.00;;;;;21.03;77.77;100691.13;5076757;28;61548;-72
2022/06/22 04:55:16;;;;;;;;;14.67;12.33;;;;;21.04;77.73;100690.19;5077346;28;45377;-72
2022/06/22 04:57:42;;;;;;;;;17.33;16.33;;;;;21.02;78.10;100684.00;5074966;28;45437;-72
2022/06/22 05:00:30;;;;;;;;;17.00;13.67;;;;;20.97;78.20;100676.09;5058585;28;46222;-72
2022/06/22 05:03:04;;;;;;;;;17.33;15.67;;;;;20.94;78.09;100681.59;5055383;28;45539;-72
2022/06/22 05:05:33;;;;;;;;;16.33;16.33;;;;;20.93;78.21;100682.50;5076780;27;45346;-72
2022/06/22 05:08:19;;;;;;;;;14.00;14.00;;;;;20.90;78.34;100683.50;5076962;28;45534;-72
2022/06/22 05:10:52;;;;;;;;;13.33;13.00;;;;;20.88;78.59;100674.63;5076387;28;46669;-72
2022/06/22 05:13:22;;;;;;;;;16.00;14.67;;;;;20.86;78.67;100681.84;5076726;28;45630;-72
2022/06/22 05:15:50;;;;;;;;;17.33;16.00;;;;;20.85;79.02;100680.09;5060253;28;45505;-72
2022/06/22 05:18:23;;;;;;;;;15.00;15.00;;;;;20.86;78.84;100679.16;5060738;28;45352;-72
2022/06/22 05:21:18;;;;;;;;;15.00;13.33;;;;;20.86;78.84;100683.66;5057740;28;46290;-72
2022/06/22 05:23:48;;;;;;;;;15.00;15.00;;;;;20.86;79.14;100695.25;5074196;27;45607;-72
2022/06/22 05:26:18;;;;;;;;;18.33;13.33;;;;;20.86;79.10;100695.25;5076792;27;45234;-72
2022/06/22 05:29:07;;;;;;;;;15.00;15.00;;;;;20.87;78.88;100705.06;5076209;28;45608;-72
2022/06/22 05:31:48;;;;;;;;;15.00;15.00;;;;;20.87;79.06;100697.00;5009649;28;47349;-73
2022/06/22 05:34:29;;;;;;;;;17.33;15.67;;;;;20.87;79.08;100682.72;5076738;28;45608;-71
2022/06/22 05:37:18;;;;;;;;;13.67;12.33;;;;;20.88;79.54;100701.47;5076681;28;45410;-72
2022/06/22 05:39:44;;;;;;;;;13.67;13.33;;;;;20.90;80.40;100677.25;5076500;28;45443;-72
2022/06/22 05:42:13;;;;;;;;;17.67;16.00;;;;;20.95;79.31;100682.47;5075637;28;45490;-72
2022/06/22 05:44:38;;;;;;;;;15.00;13.33;;;;;20.97;79.69;100689.53;5076228;28;45324;-71
2022/06/22 05:47:05;;;;;;;;;15.33;13.33;;;;;21.00;79.58;100681.38;5069075;28;45454;-72
2022/06/22 05:49:35;;;;;;;;;16.67;12.67;;;;;21.01;78.76;100674.19;5074697;27;45536;-72
2022/06/22 05:52:14;;;;;;;;;19.00;12.67;;;;;21.03;79.19;100688.44;5057705;28;47651;-72
2022/06/22 05:54:45;;;;;;;;;15.33;11.67;;;;;21.03;78.95;100688.44;5055201;27;45582;-72
2022/06/22 05:57:37;;;;;;;;;18.33;16.67;;;;;21.01;79.47;100687.63;5079510;27;45489;-72
2022/06/22 06:00:14;;;;;;;;;18.67;14.67;;;;;21.01;79.59;100690.31;5075843;27;45455;-73
2022/06/22 06:05:17;;;;;;;;;16.67;16.00;;;;;20.98;79.60;100685.03;5197963;22;71995;-73
2022/06/22 06:07:50;;;;;;;;;17.67;15.33;;;;;20.94;79.15;100684.28;5071100;27;45547;-72
2022/06/22 06:10:35;;;;;;;;;18.33;15.33;;;;;20.89;79.51;100675.50;5072678;27;45557;-72
2022/06/22 06:13:19;;;;;;;;;18.00;14.00;;;;;20.85;79.83;100684.59;5070390;27;47030;-72
2022/06/22 06:15:46;;;;;;;;;20.33;18.00;;;;;20.79;79.57;100679.44;5093779;27;45426;-72
2022/06/22 06:18:16;;;;;;;;;15.67;15.67;;;;;20.74;79.53;100690.31;5074914;27;45394;-72
2022/06/22 06:20:47;;;;;;;;;21.00;17.00;;;;;20.70;80.67;100685.97;5091970;27;45628;-72
2022/06/22 06:23:22;;;;;;;;;17.67;17.67;;;;;20.67;80.00;100692.31;5086211;27;46545;-73
2022/06/22 06:28:39;;;;;;;;;18.67;18.67;;;;;20.62;81.17;100694.28;5077069;27;45578;-73
2022/06/22 06:31:12;;;;;;;;;17.00;17.00;;;;;20.60;81.37;100695.25;5091506;27;45559;-73
2022/06/22 06:33:39;;;;;;;;;23.33;16.33;;;;;20.56;81.66;100705.22;5072339;27;47458;-73
2022/06/22 06:36:18;;;;;;;;;22.33;17.00;;;;;20.51;81.66;100695.56;5095536;27;45410;-73
2022/06/22 06:39:07;;;;;;;;;17.00;13.67;;;;;20.50;82.06;100696.47;5095624;27;45373;-73
2022/06/22 06:41:39;;;;;;;;;14.33;14.33;;;;;20.50;83.07;100691.09;5079651;27;45503;-73
2022/06/22 06:44:16;;;;;;;;;19.00;17.67;;;;;20.50;82.36;100689.28;5093440;27;45390;-73
2022/06/22 06:46:48;;;;;;;;;18.33;18.33;;;;;20.51;82.70;100692.88;5080895;27;45256;-73
2022/06/22 06:49:28;;;;;;;;;16.67;15.67;;;;;20.52;82.66;100689.28;5078613;27;45408;-74
2022/06/22 06:52:22;;;;;;;;;20.67;15.33;;;;;20.54;82.43;100682.91;5093005;27;45584;-77
2022/06/22 06:54:56;;;;;;;;;18.67;17.00;;;;;20.58;83.19;100694.44;5079031;27;45432;-74
2022/06/22 06:57:22;;;;;;;;;16.67;16.00;;;;;20.63;83.03;100700.53;5080175;27;45526;-73
2022/06/22 06:59:54;;;;;;;;;18.67;16.33;;;;;20.68;83.07;100685.16;5099320;27;45412;-73
2022/06/22 07:02:36;;;;;;;;;16.67;14.33;;;;;20.76;83.56;100682.19;5097609;27;45623;-74
2022/06/22 07:05:06;;;;;;;;;22.33;18.00;;;;;20.79;84.79;100688.34;5069517;27;47527;-73
2022/06/22 07:07:46;;;;;;;;;16.00;15.00;;;;;20.82;83.18;100684.69;5079571;27;45498;-73
2022/06/22 07:10:17;;;;;;;;;18.33;16.33;;;;;20.86;83.01;100694.38;5098220;27;45437;-73
2022/06/22 07:12:47;;;;;;;;;14.67;14.33;;;;;20.88;82.95;100690.75;5090842;27;45347;-73
2022/06/22 07:15:23;;;;;;;;;19.00;15.00;;;;;20.88;83.39;100695.22;5072663;28;47520;-73
2022/06/22 07:17:52;;;;;;;;;18.67;16.00;;;;;20.88;83.33;100697.91;5095589;27;45642;-74
2022/06/22 07:20:27;;;;;;;;;17.67;16.00;;;;;20.89;82.69;100694.28;5098429;27;45315;-73
2022/06/22 07:23:00;;;;;;;;;17.67;17.67;;;;;20.91;83.58;100687.06;5080544;27;45733;-73
2022/06/22 07:25:31;;;;;;;;;20.67;16.00;;;;;20.93;83.27;100683.41;5098464;27;46936;-73
2022/06/22 07:28:18;;;;;;;;;16.33;15.33;;;;;20.97;83.57;100688.66;5080409;27;45562;-74
2022/06/22 07:30:59;;;;;;;;;22.00;14.33;;;;;20.98;83.44;100682.34;5098330;27;45448;-73
2022/06/22 07:33:31;;;;;;;;;29.50;25.75;;;;;20.99;83.13;100674.25;5093985;27;45331;-74
2022/06/22 07:36:05;;;;;;;;;17.00;16.00;;;;;21.03;83.33;100685.75;5080010;27;47484;-73
2022/06/22 07:38:55;;;;;;;;;15.33;15.33;;;;;21.07;83.02;100687.41;5071743;27;45375;-73
2022/06/22 07:41:24;;;;;;;;;17.67;16.00;;;;;21.10;83.36;100695.38;5093732;27;45522;-73
2022/06/22 07:43:59;;;;;;;;;18.67;15.33;;;;;21.11;82.67;100697.13;5094458;27;45592;-73
2022/06/22 07:46:35;;;;;;;;;17.00;17.00;;;;;21.12;83.07;100693.50;5088643;27;47298;-73
2022/06/22 07:49:45;;;;;;;;;17.33;15.33;;;;;21.18;82.49;100701.34;5092992;27;45501;-74
2022/06/22 07:52:14;;;;;;;;;18.33;15.00;;;;;21.22;82.48;100707.50;5094779;27;45644;-74
2022/06/22 07:54:50;;;;;;;;;22.67;19.67;;;;;21.21;82.46;100709.28;5093921;27;45633;-74
2022/06/22 07:57:40;;;;;;;;;22.33;17.33;;;;;21.25;82.44;100713.59;5071712;27;47674;-73
2022/06/22 08:00:20;;;;;;;;;16.00;16.00;;;;;21.32;82.26;100711.63;5074949;27;45954;-73
2022/06/22 08:03:18;;;;;;;;;18.33;16.33;;;;;21.40;82.03;100702.34;5073911;27;45450;-73
2022/06/22 08:05:45;;;;;;;;;21.33;19.33;;;;;21.44;82.33;100706.69;5076405;27;46961;-74
2022/06/22 08:08:17;;;;;;;;;14.33;14.33;;;;;21.48;81.89;100711.97;5076583;27;46565;-74
2022/06/22 08:10:58;;;;;;;;;20.33;16.00;;;;;21.52;81.71;100714.50;5093028;27;47265;-74
2022/06/22 08:13:25;;;;;;;;;16.00;14.67;;;;;21.58;81.33;100708.03;5094864;27;45925;-73
2022/06/22 08:16:14;;;;;;;;;21.33;16.33;;;;;21.62;81.28;100705.13;5072150;27;45470;-74
2022/06/22 08:18:39;;;;;;;;;18.67;18.67;;;;;21.67;81.59;100713.91;5074687;27;47795;-74
2022/06/22 08:21:05;;;;;;;;;17.67;16.67;;;;;21.68;81.90;100714.81;5093328;27;46312;-74
2022/06/22 08:23:34;;;;;;;;;21.00;17.00;;;;;21.74;81.40;100727.16;5094690;27;45572;-74
2022/06/22 08:26:03;;;;;;;;;20.00;16.67;;;;;21.72;81.27;100727.19;5094877;27;45527;-73
2022/06/22 08:28:32;;;;;;;;;18.33;17.00;;;;;21.73;81.23;100725.38;5095729;27;47569;-73
2022/06/22 08:30:57;;;;;;;;;18.00;15.00;;;;;21.74;80.85;100722.66;5096357;27;45479;-73
2022/06/22 08:33:47;;;;;;;;;15.67;14.67;;;;;21.78;80.98;100718.88;5076863;27;45409;-73
2022/06/22 08:36:22;;;;;;;;;16.33;15.33;;;;;21.83;81.20;100724.09;5075818;27;45607;-73
2022/06/22 08:39:07;;;;;;;;;20.33;18.33;;;;;21.92;81.14;100713.88;5077680;27;47785;-73
2022/06/22 08:41:47;;;;;;;;;19.00;16.67;;;;;22.04;80.37;100708.97;5096943;27;45532;-74
2022/06/22 08:44:25;;;;;;;;;19.33;17.33;;;;;22.19;80.40;100709.28;5093436;27;45672;-73
2022/06/22 08:47:19;;;;;;;;;21.67;17.00;;;;;22.35;80.04;100714.94;5096368;27;45513;-74
2022/06/22 08:50:00;;;;;;;;;16.00;14.33;;;;;22.47;79.91;100717.13;5095501;27;46518;-73
2022/06/22 08:52:40;;;;;;;;;20.33;18.00;;;;;22.59;79.40;100715.78;5096032;27;45519;-74
2022/06/22 08:55:35;;;;;;;;;14.67;13.67;;;;;22.64;78.73;100721.00;5075744;27;45404;-77
2022/06/22 08:58:22;;;;;;;;;18.33;16.00;;;;;;;;5095662;27;45215;-75
2022/06/22 09:00:54;;;;;;;;;17.00;14.00;;;;;22.68;78.49;100712.69;5093673;27;47472;-75
2022/06/22 09:03:19;;;;;;;;;18.33;14.33;;;;;22.70;78.58;100712.66;5090978;27;45540;-76
2022/06/22 09:05:53;;;;;;;;;21.00;18.33;;;;;22.67;78.20;100710.09;5094504;27;45529;-79
2022/06/22 09:08:28;;;;;;;;;17.00;17.00;;;;;22.69;78.93;100714.47;5075649;27;45522;-77
2022/06/22 09:11:06;;;;;;;;;18.67;17.33;;;;;22.74;78.94;100711.56;5095648;27;47412;-73
2022/06/22 09:13:49;;;;;;;;;13.67;12.33;;;;;22.84;79.83;100707.56;5096636;27;45457;-74
2022/06/22 09:16:36;;;;;;;;;15.33;12.67;;;;;22.93;79.71;100706.34;5094873;27;45272;-74
2022/06/22 09:19:23;;;;;;;;;17.33;16.00;;;;;23.05;79.54;100710.31;5072721;27;45489;-75
2022/06/22 09:22:03;;;;;;;;;15.00;13.67;;;;;23.14;79.74;100705.44;5090128;27;47205;-75
2022/06/22 09:24:48;;;;;;;;;14.00;14.00;;;;;23.26;79.29;100698.63;5074409;27;45633;-74
2022/06/22 09:27:19;;;;;;;;;18.33;16.33;;;;;23.33;79.10;100710.00;5070719;27;45501;-74
2022/06/22 09:30:00;;;;;;;;;16.00;13.67;;;;;23.42;79.35;100715.88;5094582;27;45670;-74
2022/06/22 09:32:44;;;;;;;;;18.00;15.00;;;;;23.49;79.27;100711.13;5093185;27;46580;-74
2022/06/22 09:35:51;;;;;;;;;13.67;13.67;;;;;23.54;79.40;100703.66;5088881;27;45410;-74
2022/06/22 09:38:37;;;;;;;;;15.00;13.33;;;;;23.60;78.75;100702.53;5030395;28;45507;-74
2022/06/22 09:41:17;;;;;;;;;16.67;15.67;;;;;23.66;79.13;100702.28;5069148;27;45881;-74
2022/06/22 09:44:10;;;;;;;;;20.67;18.00;;;;;23.72;78.01;100708.28;5076190;27;47515;-74
2022/06/22 09:47:12;;;;;;;;;16.67;14.00;;;;;23.78;77.76;100704.44;5091617;27;45437;-75
2022/06/22 09:50:13;;;;;;;;;14.33;14.33;;;;;23.79;80.35;100704.34;5094377;27;45650;-74
2022/06/22 09:52:50;;;;;;;;;11.33;11.33;;;;;23.87;78.54;100697.75;5093861;27;45532;-75
2022/06/22 09:58:53;;;;;;;;;14.67;14.67;;;;;24.05;78.42;100696.88;5092515;27;45488;-75
2022/06/22 10:01:33;;;;;;;;;13.67;12.67;;;;;24.14;79.53;100700.97;5089444;27;45505;-74
2022/06/22 10:04:26;;;;;;;;;13.00;11.33;;;;;24.22;78.45;100693.38;5094256;27;45478;-74
2022/06/22 10:07:03;;;;;;;;;13.33;13.33;;;;;24.30;78.19;100688.50;5089918;27;46540;-74
2022/06/22 10:09:51;;;;;;;;;17.33;16.33;;;;;24.40;78.73;100697.94;5092800;27;45439;-74
2022/06/22 10:12:38;;;;;;;;;14.33;12.00;;;;;24.46;78.51;100697.63;5075310;27;45463;-75
2022/06/22 10:15:42;;;;;;;;;12.00;11.00;;;;;24.55;78.11;100694.50;5097710;27;45563;-74
2022/06/22 10:18:14;;;;;;;;;17.67;16.00;;;;;24.66;77.86;100696.66;5094942;27;46775;-74
2022/06/22 10:21:10;;;;;;;;;13.00;12.00;;;;;24.76;77.98;100694.34;5094903;27;45564;-76
2022/06/22 10:23:51;;;;;;;;;14.00;13.00;;;;;24.85;77.75;100687.63;5077570;27;45440;-75
2022/06/22 10:26:32;;;;;;;;;14.67;12.67;;;;;24.90;77.70;100694.53;5098148;27;45316;-75
2022/06/22 10:29:25;;;;;;;;;16.67;14.00;;;;;24.92;77.13;100695.31;5095664;27;47404;-75
2022/06/22 10:31:55;;;;;;;;;15.00;13.33;;;;;24.92;77.19;100694.44;5095823;27;45225;-75
2022/06/22 10:34:58;;;;;;;;;14.33;13.33;;;;;24.89;76.63;100689.22;5094315;27;45577;-74
2022/06/22 10:37:28;;;;;;;;;15.33;14.67;;;;;24.86;76.92;100687.53;5097844;27;46500;-74
2022/06/22 10:45:08;;;;;;;;;15.00;13.33;;;;;24.86;76.82;100692.94;5078391;27;47248;-74
2022/06/22 10:46:01;;;;;;;;;15.00;13.00;;;;;25.05;77.59;100682.94;5082412;27;45569;-74
2022/06/22 10:48:46;;;;;;;;;15.33;14.33;;;;;25.19;76.55;100676.84;5094852;27;45434;-74
2022/06/22 10:51:40;;;;;;;;;18.67;15.00;;;;;25.37;76.26;100677.72;5080796;27;46908;-74
2022/06/22 10:54:43;;;;;;;;;18.67;18.67;;;;;25.59;76.24;100682.88;5094625;27;45504;-75
2022/06/22 10:57:23;;;;;;;;;15.00;14.00;;;;;25.79;75.21;100684.53;5098115;27;45598;-74
2022/06/22 11:00:10;;;;;;;;;15.33;15.33;;;;;26.01;74.67;100678.81;5080562;27;45482;-75
2022/06/22 11:02:58;;;;;;;;;70.25;51.50;;;;;26.18;74.61;100681.44;5079050;27;47130;-75
2022/06/22 11:05:32;;;;;;;;;23.33;22.33;;;;;26.31;73.78;100682.50;5097492;27;45406;-75
2022/06/22 11:08:28;;;;;;;;;18.67;14.33;;;;;26.39;73.91;100672.09;5097391;27;45498;-74
2022/06/22 11:11:20;;;;;;;;;18.00;15.00;;;;;26.50;73.79;100670.63;5089891;27;45626;-74
2022/06/22 11:14:10;;;;;;;;;20.00;16.67;;;;;26.66;73.40;100670.63;5089426;27;47455;-75
2022/06/22 11:17:13;;;;;;;;;14.33;14.00;;;;;26.85;73.28;100677.59;5079581;27;45583;-74
2022/06/22 11:19:53;;;;;;;;;16.67;15.67;;;;;27.04;73.26;100671.06;5092676;27;45615;-74
2022/06/22 11:22:40;;;;;;;;;18.33;15.67;;;;;27.15;72.76;100674.88;5089596;27;45367;-74
2022/06/22 11:31:21;;;;;;;;;13.67;13.67;;;;;27.44;71.87;100676.81;5092903;27;47804;-74
2022/06/22 11:34:01;;;;;;;;;19.00;15.00;;;;;27.55;71.49;100677.88;5091121;27;45879;-74
2022/06/22 11:36:41;;;;;;;;;17.00;15.67;;;;;27.66;71.90;100685.34;5090524;27;46665;-74
2022/06/22 11:39:26;;;;;;;;;18.00;17.33;;;;;27.75;70.99;100675.78;5091027;27;45672;-73
2022/06/22 11:42:15;;;;;;;;;19.33;17.67;;;;;27.79;70.90;100674.63;5070393;27;45736;-74
2022/06/22 11:47:54;;;;;;;;;13.67;13.33;;;;;28.01;71.19;100660.53;5073819;27;45655;-73
2022/06/22 11:51:04;;;;;;;;;10.33;9.00;;;;;28.28;70.87;100655.16;5092610;27;45678;-73
2022/06/22 11:53:39;;;;;;;;;17.33;15.67;;;;;28.56;70.72;100651.56;5088553;27;45576;-75
2022/06/22 11:56:13;;;;;;;;;18.33;16.00;;;;;28.71;70.46;100651.38;5087551;27;45161;-73
2022/06/22 11:58:50;;;;;;;;;13.33;12.67;;;;;28.84;69.87;100655.97;5090782;27;47569;-76
2022/06/22 12:01:27;;;;;;;;;15.00;14.00;;;;;28.94;69.45;100649.84;5091035;27;45486;-75
2022/06/22 12:04:31;;;;;;;;;16.33;16.00;;;;;29.03;69.62;100651.06;5088803;27;45849;-75
2022/06/22 12:07:22;;;;;;;;;14.67;14.67;;;;;29.05;69.41;100646.38;5092983;27;47207;-75
2022/06/22 12:09:54;;;;;;;;;13.33;13.33;;;;;29.05;69.32;100649.09;5094428;27;46173;-77
2022/06/22 12:12:51;;;;;;;;;13.67;12.00;;;;;29.06;69.17;100656.28;5095976;27;45469;-77
2022/06/22 12:15:28;;;;;;;;;18.00;15.67;;;;;29.13;68.67;100665.75;5096893;27;45592;-77
2022/06/22 12:18:16;;;;;;;;;16.00;16.00;;;;;29.14;68.38;100666.66;5097306;27;45425;-73
2022/06/22 12:21:14;;;;;;;;;16.33;15.00;;;;;29.11;68.31;100669.56;5093955;27;46457;-72